Accueil
METAR-TAF:

METAR-TAF

Aéroports :

Udaipur, Inde

latitude: 24-37-04N, longitude: 73-53-46E, altitude: 513 m

Observation

Le bulletin a été fait il y a 9 heures et 50 minutes, à 14:00 UTC
Vent calme
Température 26°C
Humidité 45%
Pression 1015 hPa
Visibilité: 4000 m
Nuages épars à une hauteur de 10000 ft
brume sèche

METAR: VAUD 261400Z 00000KT 4000 HZ SCT100 26/13 Q1015 NOSIG

Heure: 05:20 (23:50 UTC)

Prévision

Le bulletin a été fait il y a 12 heures et 50 minutes, à 11:00 UTC
Prévision valable du 26 à 12 UTC au 26 à 21 UTC
Vent 3 kt de direction variable
Visibilité: 3000 m
Quelques nuages à une hauteur de 10000 ft
brume sèche

TAF: VAUD 261100Z 2612/2621 VRB03KT 3000 HZ FEW100

Observations et prévisions météorologiques de plus de 4000 aéroports (messages METAR et TAF).

Les stations disponibles sont représentées par des disques jaunes et rouges sur la carte.

Passer la souris dessus pour voir le nom de la station.

Cliquer dessus pour voir les observations et prévisions météorologiques.

Pour changer de carte: cliquez sur les boutons verts avec une croix noire pour zoomer, sur le bouton vert avec un tiret pour effectuer un zoom arrière, ou sur les flèches vertes pour les cartes adjacentes.


METAR-TAF: